createdAt,value
2022-12-06T00:02:45.472Z,6.71
2022-12-06T00:07:50.069Z,6.68
2022-12-06T00:12:53.233Z,6.81
2022-12-06T00:17:56.098Z,6.93
2022-12-06T00:22:58.921Z,7.06
2022-12-06T00:28:01.698Z,7.39
2022-12-06T00:33:04.473Z,7.81
2022-12-06T00:38:07.941Z,7.30
2022-12-06T00:43:10.744Z,5.49
2022-12-06T00:48:13.460Z,6.26
2022-12-06T00:53:17.041Z,6.91
2022-12-06T00:58:19.796Z,7.24
2022-12-06T01:03:22.899Z,7.44
2022-12-06T01:08:25.743Z,7.62
2022-12-06T01:13:29.061Z,7.73
2022-12-06T01:18:31.787Z,7.92
2022-12-06T01:23:34.532Z,7.63
2022-12-06T01:28:37.239Z,7.47
2022-12-06T01:33:40.588Z,7.37
2022-12-06T01:38:44.121Z,7.71
2022-12-06T01:43:47.861Z,7.98
2022-12-06T01:48:57.815Z,8.10
2022-12-06T01:54:02.046Z,8.28
2022-12-06T01:59:06.520Z,8.49
2022-12-06T02:04:09.839Z,6.98
2022-12-06T02:09:14.040Z,5.83
2022-12-06T02:14:29.739Z,6.93
2022-12-06T02:20:04.580Z,7.23
2022-12-06T02:26:01.973Z,7.45
2022-12-06T02:31:32.704Z,7.36
2022-12-06T02:37:07.481Z,7.44
2022-12-06T02:42:17.855Z,7.50
2022-12-06T02:47:24.572Z,7.96
2022-12-06T02:52:29.891Z,7.68
2022-12-06T02:57:53.487Z,7.59
2022-12-06T03:03:12.896Z,7.96
2022-12-06T03:08:32.992Z,7.91
2022-12-06T03:13:41.844Z,8.01
2022-12-06T03:19:08.103Z,8.25
2022-12-06T03:24:14.653Z,8.11
2022-12-06T03:29:21.897Z,8.15
2022-12-06T03:34:32.875Z,8.17
2022-12-06T03:39:43.581Z,8.42
2022-12-06T03:44:47.709Z,8.59
2022-12-06T03:49:58.218Z,7.97
2022-12-06T03:55:02.061Z,6.11
2022-12-06T04:00:06.223Z,7.11
2022-12-06T04:05:10.528Z,7.89
2022-12-06T04:10:13.287Z,8.22
2022-12-06T04:15:16.408Z,8.39
2022-12-06T04:20:19.134Z,8.71
2022-12-06T04:25:22.676Z,8.21
2022-12-06T04:30:44.257Z,6.19
2022-12-06T04:36:05.956Z,6.92
2022-12-06T04:41:10.141Z,7.85
2022-12-06T04:46:15.729Z,8.16
2022-12-06T04:51:19.214Z,8.54
2022-12-06T04:56:22.122Z,8.69
2022-12-06T05:01:24.966Z,7.40
2022-12-06T05:06:27.828Z,5.55
2022-12-06T05:11:30.557Z,6.26
2022-12-06T05:16:33.342Z,7.53
2022-12-06T05:21:36.105Z,7.97
2022-12-06T05:26:38.824Z,8.23
2022-12-06T05:31:41.870Z,8.30
2022-12-06T05:36:46.089Z,8.26
2022-12-06T05:41:48.914Z,8.31
2022-12-06T05:46:51.673Z,8.52
2022-12-06T05:51:54.349Z,8.90
2022-12-06T05:56:57.177Z,7.67
2022-12-06T06:02:00.115Z,5.67
2022-12-06T06:07:03.025Z,5.77
2022-12-06T06:12:12.131Z,7.30
2022-12-06T06:17:15.805Z,8.02
2022-12-06T06:22:23.367Z,8.34
2022-12-06T06:27:27.913Z,8.55
2022-12-06T06:32:30.631Z,8.68
2022-12-06T06:37:33.665Z,8.33
2022-12-06T06:42:36.420Z,6.34
2022-12-06T06:47:39.221Z,5.65
2022-12-06T06:52:41.988Z,7.09
2022-12-06T06:57:44.859Z,7.73
2022-12-06T07:02:47.706Z,8.34
2022-12-06T07:07:50.848Z,8.57
2022-12-06T07:12:54.457Z,8.68
2022-12-06T07:17:57.205Z,8.99
2022-12-06T07:23:00.070Z,8.16
2022-12-06T07:28:03.576Z,6.03
2022-12-06T07:33:06.587Z,6.41
2022-12-06T07:38:09.440Z,7.73
2022-12-06T07:43:30.761Z,8.48
2022-12-06T07:48:33.641Z,8.77
2022-12-06T07:53:36.533Z,9.08
2022-12-06T07:58:39.834Z,8.69
2022-12-06T08:03:42.630Z,6.71
2022-12-06T08:08:45.763Z,5.60
2022-12-06T08:13:49.430Z,6.98
2022-12-06T08:18:52.901Z,8.40
2022-12-06T08:23:55.814Z,9.04
2022-12-06T08:29:01.301Z,9.21
2022-12-06T08:34:04.905Z,9.41
2022-12-06T08:39:10.148Z,8.95
2022-12-06T08:44:14.295Z,6.91
2022-12-06T08:49:17.854Z,7.35
2022-12-06T08:54:24.161Z,8.31
2022-12-06T08:59:27.285Z,8.93
2022-12-06T09:04:30.139Z,9.26
2022-12-06T09:09:32.937Z,9.32
2022-12-06T09:14:35.723Z,9.23
2022-12-06T09:19:38.635Z,7.50
2022-12-06T09:24:41.515Z,6.69
2022-12-06T09:29:44.359Z,8.24
2022-12-06T09:34:47.097Z,9.20
2022-12-06T09:39:58.643Z,9.81
2022-12-06T09:45:36.235Z,9.55
2022-12-06T09:51:06.993Z,7.55
2022-12-06T09:56:25.142Z,7.30
2022-12-06T10:01:55.496Z,9.06
2022-12-06T10:07:10.055Z,9.80
2022-12-06T10:12:34.900Z,9.72
2022-12-06T10:17:42.346Z,7.87
2022-12-06T10:22:47.635Z,8.61
2022-12-06T10:27:59.644Z,9.39
2022-12-06T10:33:13.469Z,9.34
2022-12-06T10:38:28.844Z,9.44
2022-12-06T10:43:52.875Z,9.08
2022-12-06T10:48:55.540Z,7.52
2022-12-06T10:54:08.174Z,9.09
2022-12-06T10:59:33.017Z,9.53
2022-12-06T11:04:38.143Z,9.00
2022-12-06T11:09:45.270Z,7.24
2022-12-06T11:14:52.824Z,8.11
2022-12-06T11:20:26.386Z,8.86
2022-12-06T11:25:36.447Z,9.18
2022-12-06T11:30:39.264Z,9.05
2022-12-06T11:35:45.646Z,9.04
2022-12-06T11:40:52.032Z,9.13
2022-12-06T11:45:56.469Z,9.19
2022-12-06T11:50:59.685Z,9.27
2022-12-06T11:56:24.100Z,9.41
2022-12-06T12:01:45.714Z,8.42
2022-12-06T12:06:54.648Z,7.65
2022-12-06T12:12:04.171Z,8.63
2022-12-06T12:17:20.627Z,8.84
2022-12-06T12:22:37.158Z,8.78
2022-12-06T12:27:39.882Z,9.04
2022-12-06T12:32:44.417Z,9.30
2022-12-06T12:37:51.473Z,7.92
2022-12-06T12:43:25.160Z,7.14
2022-12-06T12:48:28.545Z,7.70
2022-12-06T12:53:40.796Z,8.02
2022-12-06T12:58:46.463Z,8.04
2022-12-06T13:03:53.059Z,7.93
2022-12-06T13:09:00.836Z,8.25
2022-12-06T13:14:04.802Z,8.47
2022-12-06T13:19:18.868Z,8.52
2022-12-06T13:24:30.442Z,8.65
2022-12-06T13:29:35.742Z,8.61
2022-12-06T13:34:45.382Z,8.50
2022-12-06T13:39:50.246Z,8.39
2022-12-06T13:45:01.249Z,8.30
2022-12-06T13:50:32.940Z,8.27
2022-12-06T13:55:35.722Z,8.51
2022-12-06T14:00:41.741Z,8.65
2022-12-06T14:06:01.098Z,8.71
2022-12-06T14:11:14.426Z,8.49
2022-12-06T14:16:24.523Z,8.50
2022-12-06T14:21:34.051Z,8.76
2022-12-06T14:26:36.797Z,8.65
2022-12-06T14:31:40.212Z,8.74
2022-12-06T14:36:43.402Z,8.92
2022-12-06T14:42:20.910Z,8.93
2022-12-06T14:47:23.974Z,8.76
2022-12-06T14:52:29.508Z,8.87
2022-12-06T14:57:39.016Z,8.98
2022-12-06T15:03:13.642Z,8.91
2022-12-06T15:08:28.698Z,6.89
2022-12-06T15:13:32.316Z,7.49
2022-12-06T15:18:41.266Z,8.33
2022-12-06T15:23:48.528Z,8.68
2022-12-06T15:28:51.771Z,9.00
2022-12-06T15:33:55.783Z,8.98
2022-12-06T15:38:58.924Z,8.91
2022-12-06T15:44:01.708Z,7.05
2022-12-06T15:49:04.471Z,7.22
2022-12-06T15:54:14.056Z,7.79
2022-12-06T15:59:17.632Z,8.15
2022-12-06T16:04:30.230Z,8.42
2022-12-06T16:09:32.933Z,8.37
2022-12-06T16:14:35.719Z,8.05
2022-12-06T16:19:57.163Z,7.90
2022-12-06T16:24:59.987Z,7.71
2022-12-06T16:30:04.906Z,7.47
2022-12-06T16:35:08.243Z,7.55
2022-12-06T16:40:20.448Z,7.62
2022-12-06T16:45:23.156Z,7.81
2022-12-06T16:50:28.093Z,8.15
2022-12-06T16:55:31.084Z,8.00
2022-12-06T17:00:34.046Z,8.10
2022-12-06T17:05:36.931Z,8.22
2022-12-06T17:10:39.835Z,8.26
2022-12-06T17:15:42.561Z,8.33
2022-12-06T17:20:45.288Z,8.37
2022-12-06T17:25:56.923Z,8.63
2022-12-06T17:31:00.210Z,9.08
2022-12-06T17:36:08.594Z,8.77
2022-12-06T17:41:39.474Z,6.67
2022-12-06T17:46:42.580Z,7.17
2022-12-06T17:51:46.066Z,7.88
2022-12-06T17:56:51.932Z,8.25
2022-12-06T18:02:15.290Z,8.79
2022-12-06T18:07:20.243Z,8.90
2022-12-06T18:12:23.052Z,8.95
2022-12-06T18:17:25.976Z,7.15
2022-12-06T18:22:28.784Z,7.46
2022-12-06T18:27:31.561Z,8.37
2022-12-06T18:32:34.278Z,8.77
2022-12-06T18:37:38.312Z,8.83
2022-12-06T18:42:41.313Z,6.81
2022-12-06T18:47:44.022Z,5.30
2022-12-06T18:52:47.652Z,5.20
2022-12-06T18:57:50.366Z,6.98
2022-12-06T19:02:53.137Z,8.15
2022-12-06T19:07:56.301Z,8.86
2022-12-06T19:13:04.124Z,9.29
2022-12-06T19:18:13.627Z,7.84
2022-12-06T19:23:16.337Z,6.06
2022-12-06T19:28:19.028Z,5.77
2022-12-06T19:33:22.361Z,7.53
2022-12-06T19:38:25.341Z,8.58
2022-12-06T19:43:46.562Z,9.15
2022-12-06T19:48:49.263Z,8.63
2022-12-06T19:53:52.383Z,6.54
2022-12-06T19:58:58.368Z,6.00
2022-12-06T20:04:01.106Z,7.63
2022-12-06T20:09:04.399Z,8.52
2022-12-06T20:14:13.158Z,9.00
2022-12-06T20:19:16.450Z,8.56
2022-12-06T20:24:21.381Z,6.50
2022-12-06T20:29:27.193Z,7.21
2022-12-06T20:34:34.910Z,8.34
2022-12-06T20:39:38.495Z,8.73
2022-12-06T20:44:41.291Z,9.07
2022-12-06T20:49:44.010Z,8.63
2022-12-06T20:54:46.710Z,6.61
2022-12-06T20:59:49.434Z,5.99
2022-12-06T21:04:52.214Z,7.62
2022-12-06T21:09:54.917Z,8.64
2022-12-06T21:14:57.631Z,9.21
2022-12-06T21:20:00.673Z,9.54
2022-12-06T21:25:07.237Z,8.29
2022-12-06T21:30:11.328Z,6.38
2022-12-06T21:35:14.631Z,7.13
2022-12-06T21:40:17.431Z,8.55
2022-12-06T21:45:20.328Z,9.32
2022-12-06T21:50:23.053Z,8.15
2022-12-06T21:55:26.029Z,6.35
2022-12-06T22:00:28.820Z,5.90
2022-12-06T22:05:31.531Z,7.41
2022-12-06T22:10:34.550Z,8.45
2022-12-06T22:15:37.527Z,8.99
2022-12-06T22:20:40.357Z,8.52
2022-12-06T22:25:43.088Z,6.47
2022-12-06T22:30:46.166Z,5.73
2022-12-06T22:35:48.913Z,7.18
2022-12-06T22:40:58.936Z,7.97
2022-12-06T22:46:05.731Z,8.60
2022-12-06T22:51:23.217Z,8.95
2022-12-06T22:56:27.422Z,9.25
2022-12-06T23:01:33.227Z,7.83
2022-12-06T23:06:36.443Z,6.95
2022-12-06T23:11:39.300Z,8.13
2022-12-06T23:16:43.859Z,8.66
2022-12-06T23:21:47.479Z,8.79
2022-12-06T23:26:56.157Z,8.99
2022-12-06T23:32:01.294Z,7.34
2022-12-06T23:37:04.888Z,5.39
2022-12-06T23:42:08.082Z,5.76
2022-12-06T23:47:10.800Z,7.27
2022-12-06T23:52:13.591Z,8.03
2022-12-06T23:57:16.347Z,8.54
